Thousand Springs, Nevada
Current Conditions -  °F | °C
As of 2:55 PM on Sunday 21 Dec 2014 (Local Time) from KENV Reporting Station
Scattered Clouds Scattered Clouds  
Wind Chill: 55°   Ceiling: Unl
Heat Index: 55°   Visibility: 10mi
Dew Point: 39°   Wind: 20mph
Humidity: 54%   Direction: 310°NW
Pressure: 29.95"   Gusts: NA
Location:  41.0114°N, 114.57°W
Report Text: KENV 212255Z AUTO 31017KT 10SM SCT075 13/04 A2995 RMK AO1
Loading
Personal Weather Stations






























Interactive Weather Map New forecast layout! Learn more

10-Day Weather Forecast

Advertisements
Track Severe Weather on mobile